createdAt,value
2022-10-04T00:04:40.905Z,9.94
2022-10-04T00:09:50.919Z,9.97
2022-10-04T00:14:57.774Z,9.96
2022-10-04T00:20:01.813Z,9.89
2022-10-04T00:25:07.785Z,9.79
2022-10-04T00:30:23.827Z,9.71
2022-10-04T00:35:26.597Z,9.65
2022-10-04T00:40:36.052Z,9.62
2022-10-04T00:45:43.607Z,9.60
2022-10-04T00:50:56.809Z,9.58
2022-10-04T00:56:03.709Z,9.60
2022-10-04T01:01:07.154Z,9.66
2022-10-04T01:06:12.075Z,9.69
2022-10-04T01:11:25.630Z,9.68
2022-10-04T01:16:33.599Z,9.63
2022-10-04T01:21:39.423Z,9.53
2022-10-04T01:26:44.991Z,9.47
2022-10-04T01:31:53.576Z,9.49
2022-10-04T01:36:59.962Z,9.56
2022-10-04T01:42:06.199Z,9.67
2022-10-04T01:47:16.684Z,9.77
2022-10-04T01:52:24.193Z,9.79
2022-10-04T01:57:42.867Z,9.74
2022-10-04T02:02:51.692Z,9.69
2022-10-04T02:07:56.558Z,9.67
2022-10-04T02:13:01.101Z,9.72
2022-10-04T02:18:06.514Z,9.80
2022-10-04T02:23:11.421Z,9.89
2022-10-04T02:28:16.930Z,9.95
2022-10-04T02:33:20.195Z,9.95
2022-10-04T02:38:25.557Z,9.91
2022-10-04T02:43:51.913Z,9.85
2022-10-04T02:49:20.416Z,9.83
2022-10-04T02:54:47.177Z,9.84
2022-10-04T02:59:52.007Z,9.86
2022-10-04T03:04:59.439Z,9.82
2022-10-04T03:10:07.441Z,9.74
2022-10-04T03:15:13.346Z,9.68
2022-10-04T03:20:21.407Z,9.61
2022-10-04T03:25:30.820Z,9.51
2022-10-04T03:30:36.720Z,9.44
2022-10-04T03:35:40.795Z,9.43
2022-10-04T03:40:51.938Z,9.48
2022-10-04T03:45:57.036Z,9.58
2022-10-04T03:51:03.263Z,9.67
2022-10-04T03:56:38.728Z,9.77
2022-10-04T04:01:51.610Z,9.87
2022-10-04T04:07:03.345Z,9.93
2022-10-04T04:12:21.437Z,9.99
2022-10-04T04:17:29.871Z,10.06
2022-10-04T04:22:33.621Z,10.12
2022-10-04T04:27:40.089Z,10.18
2022-10-04T04:32:49.470Z,10.24
2022-10-04T04:38:10.775Z,10.30
2022-10-04T04:43:21.153Z,10.35
2022-10-04T04:48:24.161Z,10.41
2022-10-04T04:53:29.318Z,10.45
2022-10-04T04:58:43.631Z,10.49
2022-10-04T05:04:00.544Z,10.52
2022-10-04T05:09:05.582Z,10.54
2022-10-04T05:14:11.554Z,10.58
2022-10-04T05:19:16.815Z,10.61
2022-10-04T05:24:26.372Z,10.64
2022-10-04T05:29:34.517Z,10.77
2022-10-04T05:34:42.856Z,10.99
2022-10-04T05:39:58.495Z,11.12
2022-10-04T05:45:01.543Z,11.14
2022-10-04T05:50:05.202Z,11.15
2022-10-04T05:55:27.123Z,11.13
2022-10-04T06:00:51.126Z,11.19
2022-10-04T06:05:57.688Z,11.34
2022-10-04T06:11:18.938Z,11.38
2022-10-04T06:16:21.874Z,11.35
2022-10-04T06:21:27.714Z,11.30
2022-10-04T06:26:44.034Z,11.23
2022-10-04T06:31:59.738Z,11.17
2022-10-04T06:37:09.913Z,11.17
2022-10-04T06:42:25.208Z,11.19
2022-10-04T06:47:43.780Z,11.23
2022-10-04T06:53:15.464Z,11.25
2022-10-04T06:58:44.398Z,11.42
2022-10-04T07:03:56.390Z,11.72
2022-10-04T07:09:05.754Z,11.80
2022-10-04T07:14:24.973Z,11.80
2022-10-04T07:19:39.427Z,11.97
2022-10-04T07:24:51.331Z,12.42
2022-10-04T07:30:00.496Z,12.63
2022-10-04T07:35:09.251Z,12.83
2022-10-04T07:40:34.033Z,13.05
2022-10-04T07:45:41.935Z,13.46
2022-10-04T07:51:23.100Z,15.04
2022-10-04T07:56:45.630Z,18.89
2022-10-04T08:02:27.745Z,20.05
2022-10-04T08:07:51.742Z,23.14
2022-10-04T08:13:22.436Z,22.85
2022-10-04T08:18:31.445Z,20.88
2022-10-04T08:23:44.977Z,18.73
2022-10-04T08:29:40.851Z,17.51
2022-10-04T08:35:16.621Z,16.69
2022-10-04T08:40:55.264Z,16.23
2022-10-04T08:46:31.598Z,16.07
2022-10-04T08:51:40.910Z,15.92
2022-10-04T08:56:43.858Z,16.01
2022-10-04T09:02:15.963Z,16.04
2022-10-04T09:07:30.790Z,17.12
2022-10-04T09:13:02.001Z,17.74
2022-10-04T09:18:51.348Z,17.13
2022-10-04T09:24:19.136Z,16.88
2022-10-04T09:29:34.227Z,17.00
2022-10-04T09:34:51.847Z,17.18
2022-10-04T09:40:26.220Z,16.88
2022-10-04T09:45:49.300Z,17.59
2022-10-04T09:51:17.083Z,22.63
2022-10-04T09:56:42.901Z,26.72
2022-10-04T10:02:11.241Z,29.56
2022-10-04T10:07:22.939Z,27.66
2022-10-04T10:13:12.228Z,25.78
2022-10-04T10:18:33.774Z,24.00
2022-10-04T10:24:12.108Z,23.19
2022-10-04T10:29:39.383Z,24.49
2022-10-04T10:35:00.418Z,27.51
2022-10-04T10:40:37.457Z,27.03
2022-10-04T10:46:08.011Z,23.51
2022-10-04T10:51:20.725Z,22.05
2022-10-04T10:56:47.873Z,20.88
2022-10-04T11:01:50.956Z,19.10
2022-10-04T11:07:20.726Z,17.94
2022-10-04T11:13:01.308Z,17.54
2022-10-04T11:18:42.316Z,18.17
2022-10-04T11:24:25.045Z,18.92
2022-10-04T11:29:31.142Z,20.93
2022-10-04T11:35:01.578Z,20.80
2022-10-04T11:40:07.248Z,20.07
2022-10-04T11:45:33.599Z,19.50
2022-10-04T11:51:12.549Z,19.83
2022-10-04T11:56:38.598Z,19.80
2022-10-04T12:02:16.625Z,20.63
2022-10-04T12:07:47.893Z,23.35
2022-10-04T12:12:54.072Z,22.61
2022-10-04T12:18:33.239Z,22.15
2022-10-04T12:23:54.361Z,21.85
2022-10-04T12:29:00.131Z,21.27
2022-10-04T12:34:15.193Z,22.79
2022-10-04T12:39:41.071Z,26.40
2022-10-04T12:44:43.870Z,28.41
2022-10-04T12:49:56.508Z,28.82
2022-10-04T12:55:23.671Z,26.10
2022-10-04T13:00:34.262Z,24.01
2022-10-04T13:06:03.277Z,24.36
2022-10-04T13:11:24.713Z,24.60
2022-10-04T13:22:56.320Z,24.53
2022-10-04T13:28:06.275Z,25.12
2022-10-04T13:33:40.341Z,25.65
2022-10-04T13:39:01.268Z,26.81
2022-10-04T13:44:41.759Z,26.84
2022-10-04T13:49:56.534Z,26.81
2022-10-04T13:55:24.321Z,26.89
2022-10-04T14:00:59.750Z,27.04
2022-10-04T14:06:30.050Z,27.01
2022-10-04T14:11:32.837Z,26.47
2022-10-04T14:16:50.719Z,26.01
2022-10-04T14:21:56.466Z,25.42
2022-10-04T14:27:28.554Z,24.65
2022-10-04T14:32:43.643Z,23.63
2022-10-04T14:38:01.885Z,22.77
2022-10-04T14:43:10.547Z,22.56
2022-10-04T14:48:28.711Z,22.38
2022-10-04T14:53:42.068Z,22.09
2022-10-04T14:59:29.410Z,21.89
2022-10-04T15:04:57.096Z,21.51
2022-10-04T15:10:22.534Z,21.08
2022-10-04T15:15:40.965Z,20.77
2022-10-04T15:20:54.445Z,20.36
2022-10-04T15:26:13.177Z,19.94
2022-10-04T15:31:28.674Z,19.36
2022-10-04T15:36:39.718Z,18.54
2022-10-04T15:42:25.117Z,17.81
2022-10-04T15:47:57.111Z,16.98
2022-10-04T15:53:45.894Z,16.11
2022-10-04T15:59:28.624Z,15.46
2022-10-04T16:04:32.763Z,14.94
2022-10-04T16:09:41.497Z,14.52
2022-10-04T16:15:21.063Z,14.12
2022-10-04T16:20:43.216Z,13.74
2022-10-04T16:25:48.173Z,13.42
2022-10-04T16:31:20.351Z,13.13
2022-10-04T16:36:28.561Z,12.78
2022-10-04T16:41:41.570Z,12.48
2022-10-04T16:46:46.449Z,12.18
2022-10-04T16:52:03.003Z,11.91
2022-10-04T16:57:13.900Z,11.69
2022-10-04T17:03:04.213Z,11.54
2022-10-04T17:08:15.825Z,11.39
2022-10-04T17:13:46.169Z,11.25
2022-10-04T17:18:48.963Z,11.07
2022-10-04T17:24:08.976Z,10.89
2022-10-04T17:29:38.401Z,10.75
2022-10-04T17:34:59.782Z,10.67
2022-10-04T17:40:12.575Z,10.63
2022-10-04T17:45:41.080Z,10.58
2022-10-04T17:51:23.513Z,10.49
2022-10-04T17:56:45.188Z,10.40
2022-10-04T18:02:00.299Z,10.33
2022-10-04T18:07:16.342Z,10.26
2022-10-04T18:12:30.454Z,10.17
2022-10-04T18:17:41.111Z,10.11
2022-10-04T18:22:50.067Z,10.08
2022-10-04T18:28:08.102Z,10.06
2022-10-04T18:33:16.291Z,10.00
2022-10-04T18:38:28.975Z,9.92
2022-10-04T18:43:49.679Z,9.86
2022-10-04T18:49:00.105Z,9.84
2022-10-04T18:54:34.629Z,9.81
2022-10-04T19:00:03.042Z,9.76
2022-10-04T19:05:05.935Z,9.66
2022-10-04T19:10:20.823Z,9.58
2022-10-04T19:15:50.173Z,9.54
2022-10-04T19:21:04.926Z,9.50
2022-10-04T19:26:37.669Z,9.44
2022-10-04T19:32:01.536Z,9.36
2022-10-04T19:37:10.574Z,9.32
2022-10-04T19:42:36.621Z,9.28
2022-10-04T19:47:49.047Z,9.21
2022-10-04T19:52:59.737Z,9.13
2022-10-04T19:58:19.537Z,9.08
2022-10-04T20:03:22.747Z,9.05
2022-10-04T20:09:01.529Z,9.01
2022-10-04T20:14:05.317Z,8.96
2022-10-04T20:19:19.490Z,8.93
2022-10-04T20:24:37.653Z,8.92
2022-10-04T20:29:40.467Z,8.93
2022-10-04T20:34:43.252Z,8.94
2022-10-04T20:39:46.259Z,8.99
2022-10-04T20:44:56.204Z,9.08
2022-10-04T20:50:00.104Z,9.22
2022-10-04T20:55:15.763Z,9.35
2022-10-04T21:00:21.467Z,9.44
2022-10-04T21:05:25.010Z,9.52
2022-10-04T21:10:28.775Z,9.62
2022-10-04T21:15:31.678Z,9.71
2022-10-04T21:20:45.027Z,9.75
2022-10-04T21:25:47.930Z,9.76
2022-10-04T21:30:50.732Z,9.79
2022-10-04T21:35:53.538Z,9.85
2022-10-04T21:40:56.950Z,9.92
2022-10-04T21:46:00.025Z,9.95
2022-10-04T21:51:03.372Z,9.98
2022-10-04T21:56:08.021Z,10.03
2022-10-04T22:01:11.182Z,10.08
2022-10-04T22:06:14.133Z,10.09
2022-10-04T22:11:17.244Z,10.13
2022-10-04T22:16:20.110Z,10.14
2022-10-04T22:21:23.154Z,10.11
2022-10-04T22:26:26.953Z,10.07
2022-10-04T22:31:30.207Z,10.04
2022-10-04T22:36:37.915Z,10.02
2022-10-04T22:41:47.434Z,9.99
2022-10-04T22:46:55.698Z,9.98
2022-10-04T22:52:01.069Z,9.97
2022-10-04T22:57:04.070Z,9.97
2022-10-04T23:02:15.064Z,9.96
2022-10-04T23:07:19.139Z,9.95
2022-10-04T23:12:22.098Z,9.95
2022-10-04T23:17:25.820Z,9.95
2022-10-04T23:22:30.752Z,9.94
2022-10-04T23:27:34.497Z,9.91
2022-10-04T23:32:37.401Z,9.90
2022-10-04T23:37:40.407Z,9.95
2022-10-04T23:42:43.353Z,9.98
2022-10-04T23:47:49.903Z,9.98
2022-10-04T23:52:58.210Z,9.98
2022-10-04T23:58:01.444Z,9.98
